Time;durP1;ratioP1;P1;durP2;ratioP2;P2;SDS_P1;SDS_P2;PMS_P1;PMS_P2;Temp;Humidity;BMP_temperature;BMP_pressure;BME280_temperature;BME280_humidity;BME280_pressure;Samples;Min_cycle;Max_cycle;Signal;HPM_P1;HPM_P2
2021/08/22 00:00:45;;;;;;;10.43;6.28;;;;;;;;;;4378568;32;20082;-73
2021/08/22 00:03:11;;;;;;;11.10;6.07;;;;;;;;;;4379475;32;20101;-73
2021/08/22 00:05:38;;;;;;;9.60;5.80;;;;;;;;;;4378708;32;20161;-73
2021/08/22 00:08:04;;;;;;;11.38;6.25;;;;;;;;;;4378753;32;20078;-72
2021/08/22 00:10:31;;;;;;;12.15;5.53;;;;;;;;;;4378662;32;20495;-72
2021/08/22 00:12:57;;;;;;;10.77;5.47;;;;;;;;;;4366399;32;20078;-72
2021/08/22 00:15:24;;;;;;;9.70;5.68;;;;;;;;;;4366159;32;20073;-73
2021/08/22 00:17:50;;;;;;;10.13;5.97;;;;;;;;;;4366341;32;20073;-72
2021/08/22 00:20:20;;;;;;;14.60;6.32;;;;;;;;;;4378786;32;20092;-72
2021/08/22 00:22:47;;;;;;;9.30;5.80;;;;;;;;;;4378828;32;20088;-72
2021/08/22 00:25:14;;;;;;;12.57;5.35;;;;;;;;;;4378372;32;20081;-73
2021/08/22 00:27:40;;;;;;;11.70;6.20;;;;;;;;;;4378406;32;20509;-73
2021/08/22 00:30:07;;;;;;;8.18;5.57;;;;;;;;;;4366150;32;20072;-73
2021/08/22 00:32:34;;;;;;;8.80;5.37;;;;;;;;;;4378007;32;20081;-72
2021/08/22 00:35:00;;;;;;;10.38;5.90;;;;;;;;;;4365908;32;20499;-73
2021/08/22 00:37:29;;;;;;;12.82;5.95;;;;;;;;;;4378072;32;20541;-73
2021/08/22 00:39:57;;;;;;;14.00;5.85;;;;;;;;;;4366309;32;20177;-73
2021/08/22 00:45:05;;;;;;;9.65;5.87;;;;;;;;;;3833888;37;20436;-73
2021/08/22 00:47:31;;;;;;;13.77;5.62;;;;;;;;;;4391557;32;20070;-73
2021/08/22 00:49:59;;;;;;;10.70;5.60;;;;;;;;;;4378297;32;20076;-73
2021/08/22 00:52:26;;;;;;;10.20;6.20;;;;;;;;;;4353415;32;20092;-73
2021/08/22 00:54:53;;;;;;;13.27;5.82;;;;;;;;;;4378599;32;20157;-73
2021/08/22 00:57:19;;;;;;;9.35;5.15;;;;;;;;;;4404462;32;20086;-73
2021/08/22 00:59:46;;;;;;;9.27;5.05;;;;;;;;;;4377942;32;20078;-73
2021/08/22 01:02:25;;;;;;;15.13;6.25;;;;;;;;;;4404477;32;20508;-73
2021/08/22 01:05:06;;;;;;;12.63;5.82;;;;;;;;;;4366730;32;20101;-73
2021/08/22 01:07:41;;;;;;;11.90;5.70;;;;;;;;;;4391758;32;20141;-73
2021/08/22 01:10:08;;;;;;;13.23;6.22;;;;;;;;;;4366118;32;20084;-74
2021/08/22 01:12:45;;;;;;;9.02;4.85;;;;;;;;;;4365548;32;20595;-73
2021/08/22 01:15:13;;;;;;;12.05;5.85;;;;;;;;;;4390984;32;20162;-72
2021/08/22 01:17:48;;;;;;;12.00;5.50;;;;;;;;;;4378305;32;20084;-73
2021/08/22 01:20:14;;;;;;;14.50;5.22;;;;;;;;;;4377702;32;20081;-73
2021/08/22 01:22:40;;;;;;;9.43;5.70;;;;;;;;;;4390296;32;20612;-73
2021/08/22 01:25:10;;;;;;;9.32;5.20;;;;;;;;;;4365282;32;20170;-72
2021/08/22 01:27:38;;;;;;;8.65;5.00;;;;;;;;;;4365311;32;20073;-73
2021/08/22 01:30:06;;;;;;;8.95;4.82;;;;;;;;;;4389709;32;20105;-72
2021/08/22 01:32:55;;;;;;;8.85;5.20;;;;;;;;;;4365562;32;20140;-73
2021/08/22 01:35:22;;;;;;;13.55;5.90;;;;;;;;;;4392333;32;20073;-71
2021/08/22 01:37:49;;;;;;;10.88;6.00;;;;;;;;;;4364576;32;20437;-73
2021/08/22 01:40:17;;;;;;;9.13;5.50;;;;;;;;;;4364871;32;20092;-72
2021/08/22 01:42:44;;;;;;;12.35;6.32;;;;;;;;;;4389736;32;20157;-73
2021/08/22 01:45:14;;;;;;;12.02;5.82;;;;;;;;;;4377706;32;20100;-71
2021/08/22 01:47:44;;;;;;;8.85;5.65;;;;;;;;;;4377499;32;20575;-73
2021/08/22 01:50:11;;;;;;;12.18;5.55;;;;;;;;;;4377207;32;20460;-72
2021/08/22 01:52:37;;;;;;;10.57;5.47;;;;;;;;;;4365042;32;20069;-73
2021/08/22 01:55:07;;;;;;;9.45;5.37;;;;;;;;;;4360483;32;20121;-73
2021/08/22 01:57:44;;;;;;;9.75;5.65;;;;;;;;;;4367437;32;20089;-73
2021/08/22 02:00:11;;;;;;;14.05;6.00;;;;;;;;;;4368282;32;20166;-73
2021/08/22 02:02:59;;;;;;;9.15;5.50;;;;;;;;;;4367565;32;20068;-73
2021/08/22 02:05:26;;;;;;;9.40;5.75;;;;;;;;;;4330435;32;20081;-72
2021/08/22 02:07:52;;;;;;;12.65;5.85;;;;;;;;;;4354870;32;20073;-73
2021/08/22 02:10:26;;;;;;;10.43;5.68;;;;;;;;;;4379762;32;20182;-73
2021/08/22 02:12:55;;;;;;;12.85;5.80;;;;;;;;;;4367269;32;20082;-72
2021/08/22 02:15:28;;;;;;;10.45;5.45;;;;;;;;;;4367282;32;20514;-73
2021/08/22 02:17:59;;;;;;;14.07;5.43;;;;;;;;;;4355217;32;20070;-72
2021/08/22 02:20:26;;;;;;;13.95;6.25;;;;;;;;;;4367466;32;20069;-72
2021/08/22 02:22:53;;;;;;;10.32;5.35;;;;;;;;;;4353982;32;20531;-72
2021/08/22 02:25:20;;;;;;;8.65;5.80;;;;;;;;;;4366642;32;20094;-73
2021/08/22 02:27:47;;;;;;;13.60;5.62;;;;;;;;;;4366582;32;20136;-71
2021/08/22 02:30:14;;;;;;;9.13;5.00;;;;;;;;;;4354315;32;20081;-72
2021/08/22 02:32:40;;;;;;;13.30;5.20;;;;;;;;;;4367210;32;20161;-72
2021/08/22 02:35:07;;;;;;;7.78;4.97;;;;;;;;;;4366950;32;20085;-73
2021/08/22 02:37:34;;;;;;;9.63;5.25;;;;;;;;;;4354478;32;20084;-73
2021/08/22 02:40:01;;;;;;;9.73;5.15;;;;;;;;;;4378819;32;20462;-73
2021/08/22 02:42:27;;;;;;;12.25;5.30;;;;;;;;;;4342039;32;20099;-73
2021/08/22 02:44:54;;;;;;;8.85;4.75;;;;;;;;;;4366138;32;20095;-72
2021/08/22 02:47:20;;;;;;;9.75;5.15;;;;;;;;;;4366457;32;20433;-72
2021/08/22 02:49:46;;;;;;;10.80;5.78;;;;;;;;;;4366454;32;20519;-72
2021/08/22 02:52:13;;;;;;;12.45;5.43;;;;;;;;;;4366544;32;20521;-72
2021/08/22 02:54:39;;;;;;;11.88;6.00;;;;;;;;;;4366833;32;20096;-73
2021/08/22 02:57:06;;;;;;;14.32;5.43;;;;;;;;;;4392511;32;20164;-71
2021/08/22 02:59:32;;;;;;;9.70;5.50;;;;;;;;;;4378444;32;20601;-73
2021/08/22 03:01:59;;;;;;;8.68;5.10;;;;;;;;;;4353791;32;20153;-73
2021/08/22 03:04:25;;;;;;;7.85;4.97;;;;;;;;;;4366423;32;20505;-73
2021/08/22 03:06:52;;;;;;;9.50;5.12;;;;;;;;;;4352919;32;20066;-73
2021/08/22 03:09:18;;;;;;;10.82;5.07;;;;;;;;;;4378400;32;20085;-73
2021/08/22 03:11:45;;;;;;;10.60;5.22;;;;;;;;;;4366109;32;20070;-72
2021/08/22 03:14:12;;;;;;;11.50;5.60;;;;;;;;;;4366357;32;20084;-73
2021/08/22 03:16:38;;;;;;;9.80;5.00;;;;;;;;;;4378245;32;20161;-73
2021/08/22 03:19:05;;;;;;;9.55;5.10;;;;;;;;;;4378342;32;20082;-73
2021/08/22 03:21:33;;;;;;;11.68;4.70;;;;;;;;;;4341626;32;20085;-73
2021/08/22 03:23:59;;;;;;;13.32;5.72;;;;;;;;;;4378243;32;20174;-71
2021/08/22 03:26:26;;;;;;;10.20;5.62;;;;;;;;;;4365865;32;20437;-72
2021/08/22 03:28:52;;;;;;;11.57;5.50;;;;;;;;;;4378463;32;20452;-73
2021/08/22 03:31:19;;;;;;;10.65;5.12;;;;;;;;;;4392672;32;20504;-73
2021/08/22 03:33:45;;;;;;;9.13;5.45;;;;;;;;;;4353765;32;20177;-72
2021/08/22 03:36:12;;;;;;;10.52;5.40;;;;;;;;;;4353309;32;20077;-73
2021/08/22 03:38:38;;;;;;;9.75;5.40;;;;;;;;;;4378112;32;20078;-73
2021/08/22 03:41:05;;;;;;;8.00;5.62;;;;;;;;;;4378273;32;20081;-73
2021/08/22 03:43:31;;;;;;;10.02;5.37;;;;;;;;;;4365469;32;20094;-73
2021/08/22 03:45:58;;;;;;;11.98;4.85;;;;;;;;;;4365495;32;20158;-72
2021/08/22 03:48:24;;;;;;;9.55;5.30;;;;;;;;;;4378133;32;20085;-73
2021/08/22 03:50:51;;;;;;;12.07;5.93;;;;;;;;;;4378112;32;20074;-72
2021/08/22 03:53:17;;;;;;;15.30;4.95;;;;;;;;;;4352987;32;20077;-73
2021/08/22 03:55:44;;;;;;;9.65;5.60;;;;;;;;;;4365315;32;20080;-72
2021/08/22 03:58:11;;;;;;;8.88;5.37;;;;;;;;;;4391829;32;20142;-72
2021/08/22 04:00:38;;;;;;;7.35;4.90;;;;;;;;;;4365358;32;20070;-73
2021/08/22 04:03:04;;;;;;;11.07;6.03;;;;;;;;;;4353086;32;20522;-73
2021/08/22 04:05:31;;;;;;;10.20;5.85;;;;;;;;;;4353239;32;20154;-73
2021/08/22 04:07:59;;;;;;;8.85;6.07;;;;;;;;;;4365589;32;20084;-73
2021/08/22 04:10:27;;;;;;;9.82;5.55;;;;;;;;;;4378186;32;20182;-73
2021/08/22 04:12:54;;;;;;;13.98;6.32;;;;;;;;;;4377704;32;20166;-72
2021/08/22 04:15:21;;;;;;;10.38;6.82;;;;;;;;;;4364965;32;20455;-73
2021/08/22 04:17:47;;;;;;;11.60;6.07;;;;;;;;;;4352611;32;20074;-74
2021/08/22 04:20:14;;;;;;;10.68;5.68;;;;;;;;;;4365565;32;20077;-73
2021/08/22 04:22:41;;;;;;;9.55;5.45;;;;;;;;;;4365056;32;20082;-73
2021/08/22 04:25:09;;;;;;;10.60;5.95;;;;;;;;;;4352830;32;20057;-73
2021/08/22 04:27:35;;;;;;;14.98;6.12;;;;;;;;;;4378086;32;20445;-73
2021/08/22 04:30:02;;;;;;;11.45;6.22;;;;;;;;;;4352773;32;20100;-72
2021/08/22 04:32:28;;;;;;;11.10;5.28;;;;;;;;;;4352975;32;20137;-73
2021/08/22 04:34:55;;;;;;;9.25;5.62;;;;;;;;;;4391420;32;20531;-72
2021/08/22 04:37:21;;;;;;;12.73;6.15;;;;;;;;;;4377323;32;20073;-73
2021/08/22 04:39:48;;;;;;;10.38;5.75;;;;;;;;;;4365157;32;20500;-74
2021/08/22 04:42:14;;;;;;;12.50;6.32;;;;;;;;;;4340510;32;20087;-72
2021/08/22 04:44:41;;;;;;;11.00;6.47;;;;;;;;;;4377011;32;20108;-72
2021/08/22 04:47:07;;;;;;;10.85;5.87;;;;;;;;;;4365251;32;20091;-73
2021/08/22 04:49:34;;;;;;;10.43;6.05;;;;;;;;;;4352943;32;20568;-73
2021/08/22 04:52:00;;;;;;;9.63;5.62;;;;;;;;;;4377096;32;20156;-71
2021/08/22 04:54:27;;;;;;;9.95;5.85;;;;;;;;;;4391120;32;20077;-72
2021/08/22 04:56:53;;;;;;;10.43;6.15;;;;;;;;;;4377372;32;20518;-72
2021/08/22 04:59:20;;;;;;;11.85;5.20;;;;;;;;;;4391230;32;20073;-73
2021/08/22 05:01:46;;;;;;;12.15;5.75;;;;;;;;;;4391513;32;20084;-73
2021/08/22 05:04:13;;;;;;;9.90;5.45;;;;;;;;;;4391329;32;20501;-73
2021/08/22 05:06:39;;;;;;;9.77;6.00;;;;;;;;;;4377036;32;20092;-72
2021/08/22 05:09:06;;;;;;;9.48;5.85;;;;;;;;;;4365066;32;20078;-73
2021/08/22 05:11:34;;;;;;;11.07;5.90;;;;;;;;;;4365234;32;20406;-73
2021/08/22 05:14:00;;;;;;;11.05;6.55;;;;;;;;;;4340406;32;20077;-73
2021/08/22 05:16:27;;;;;;;12.75;6.43;;;;;;;;;;4377307;32;20087;-73
2021/08/22 05:18:53;;;;;;;14.18;7.20;;;;;;;;;;4364919;32;20076;-73
2021/08/22 05:21:20;;;;;;;15.80;7.45;;;;;;;;;;4364933;32;20094;-71
2021/08/22 05:23:46;;;;;;;12.13;7.00;;;;;;;;;;4365184;32;20182;-73
2021/08/22 05:26:13;;;;;;;12.90;6.70;;;;;;;;;;4377273;32;20448;-73
2021/08/22 05:28:39;;;;;;;12.52;6.80;;;;;;;;;;4377090;32;20088;-73
2021/08/22 05:31:06;;;;;;;11.63;5.57;;;;;;;;;;4354445;32;20066;-73
2021/08/22 05:33:33;;;;;;;10.68;6.55;;;;;;;;;;4380090;32;20077;-72
2021/08/22 05:36:14;;;;;;;13.60;7.07;;;;;;;;;;4367514;32;20077;-73
2021/08/22 05:38:41;;;;;;;14.32;7.45;;;;;;;;;;4367578;32;20074;-73
2021/08/22 05:41:07;;;;;;;14.27;7.40;;;;;;;;;;4367664;32;20138;-73
2021/08/22 05:43:34;;;;;;;15.73;8.02;;;;;;;;;;4366853;32;20103;-73
2021/08/22 05:46:00;;;;;;;15.48;7.70;;;;;;;;;;4379846;32;20161;-73
2021/08/22 05:48:27;;;;;;;17.73;7.72;;;;;;;;;;4379397;32;20445;-73
2021/08/22 05:50:53;;;;;;;12.07;7.30;;;;;;;;;;4355285;32;20084;-73
2021/08/22 05:53:20;;;;;;;11.38;6.97;;;;;;;;;;4367384;32;20095;-73
2021/08/22 05:55:46;;;;;;;15.40;7.05;;;;;;;;;;4379832;32;20508;-74
2021/08/22 05:58:13;;;;;;;12.75;7.12;;;;;;;;;;4379714;32;20092;-73
2021/08/22 06:00:40;;;;;;;10.75;6.85;;;;;;;;;;4367128;32;20077;-73
2021/08/22 06:03:06;;;;;;;11.38;6.82;;;;;;;;;;4366938;32;20576;-73
2021/08/22 06:05:33;;;;;;;15.10;6.85;;;;;;;;;;4379377;32;20152;-73
2021/08/22 06:07:59;;;;;;;11.88;7.32;;;;;;;;;;4366995;32;20081;-73
2021/08/22 06:10:26;;;;;;;11.90;7.37;;;;;;;;;;4367116;32;20081;-73
2021/08/22 06:12:52;;;;;;;14.77;7.55;;;;;;;;;;4367214;32;20555;-73
2021/08/22 06:15:19;;;;;;;12.85;6.72;;;;;;;;;;4379463;32;20452;-72
2021/08/22 06:17:45;;;;;;;13.07;7.75;;;;;;;;;;4366927;32;20527;-72
2021/08/22 06:20:12;;;;;;;10.68;6.72;;;;;;;;;;4379105;32;20078;-73
2021/08/22 06:22:39;;;;;;;12.73;7.07;;;;;;;;;;4366810;32;20174;-73
2021/08/22 06:25:06;;;;;;;15.65;7.25;;;;;;;;;;4367054;32;20070;-73
2021/08/22 06:27:32;;;;;;;14.38;6.93;;;;;;;;;;4354416;32;20428;-73
2021/08/22 06:30:01;;;;;;;11.23;6.37;;;;;;;;;;4379068;32;20088;-73
2021/08/22 06:32:28;;;;;;;11.27;6.97;;;;;;;;;;4393217;32;20084;-72
2021/08/22 06:34:54;;;;;;;14.98;7.03;;;;;;;;;;4366577;32;20108;-73
2021/08/22 06:37:21;;;;;;;13.70;7.47;;;;;;;;;;4366472;32;20146;-73
2021/08/22 06:39:48;;;;;;;10.55;6.93;;;;;;;;;;4379569;32;20093;-72
2021/08/22 06:42:15;;;;;;;11.80;5.82;;;;;;;;;;4392590;32;20247;-72
2021/08/22 06:44:42;;;;;;;13.05;6.47;;;;;;;;;;4378505;32;20162;-72
2021/08/22 06:47:10;;;;;;;10.32;6.03;;;;;;;;;;4366621;32;20573;-73
2021/08/22 06:49:37;;;;;;;12.85;6.15;;;;;;;;;;4366871;32;20073;-72
2021/08/22 06:52:07;;;;;;;12.07;6.55;;;;;;;;;;4366290;32;20085;-73
2021/08/22 06:54:34;;;;;;;12.40;6.18;;;;;;;;;;4378913;32;20101;-73
2021/08/22 06:57:00;;;;;;;10.85;5.60;;;;;;;;;;4366605;32;20508;-73
2021/08/22 06:59:27;;;;;;;11.85;6.07;;;;;;;;;;4366204;32;20069;-73
2021/08/22 07:01:53;;;;;;;10.45;6.10;;;;;;;;;;4353761;32;20070;-74
2021/08/22 07:04:19;;;;;;;11.45;5.50;;;;;;;;;;4366364;32;20086;-73
2021/08/22 07:06:46;;;;;;;11.77;6.28;;;;;;;;;;4365857;32;20528;-73
2021/08/22 07:09:12;;;;;;;9.85;6.05;;;;;;;;;;4378672;32;20090;-73
2021/08/22 07:11:39;;;;;;;13.73;6.53;;;;;;;;;;4378728;32;20100;-73
2021/08/22 07:14:05;;;;;;;11.93;5.70;;;;;;;;;;4378170;32;20074;-73
2021/08/22 07:16:33;;;;;;;9.75;5.97;;;;;;;;;;4378819;32;20085;-73
2021/08/22 07:18:59;;;;;;;12.10;6.32;;;;;;;;;;4354057;32;20085;-73
2021/08/22 07:21:26;;;;;;;10.32;5.75;;;;;;;;;;4392075;32;20568;-73
2021/08/22 07:23:52;;;;;;;9.52;5.87;;;;;;;;;;4378000;32;20104;-72
2021/08/22 07:26:19;;;;;;;11.82;5.78;;;;;;;;;;4378108;32;20508;-73
2021/08/22 07:28:45;;;;;;;8.15;5.60;;;;;;;;;;4378364;32;20096;-72
2021/08/22 07:31:12;;;;;;;11.52;5.50;;;;;;;;;;4365646;32;20181;-72
2021/08/22 07:33:38;;;;;;;13.93;6.30;;;;;;;;;;4365626;32;20537;-72
2021/08/22 07:36:05;;;;;;;12.90;5.53;;;;;;;;;;4353595;32;20074;-72
2021/08/22 07:38:32;;;;;;;8.85;5.40;;;;;;;;;;4391773;32;20526;-73
2021/08/22 07:40:58;;;;;;;9.88;6.55;;;;;;;;;;4353859;32;20205;-73
2021/08/22 07:43:25;;;;;;;13.15;5.78;;;;;;;;;;4378325;32;20162;-72
2021/08/22 07:45:51;;;;;;;12.80;5.95;;;;;;;;;;4378106;32;20186;-73
2021/08/22 07:48:18;;;;;;;9.85;5.55;;;;;;;;;;4378174;32;20087;-73
2021/08/22 07:50:44;;;;;;;11.18;5.60;;;;;;;;;;4378282;32;20516;-73
2021/08/22 07:53:11;;;;;;;10.82;5.60;;;;;;;;;;4340345;32;20070;-74
2021/08/22 07:55:37;;;;;;;9.52;5.90;;;;;;;;;;4378045;32;20067;-73
2021/08/22 07:58:04;;;;;;;9.48;6.22;;;;;;;;;;4352973;32;20608;-73
2021/08/22 08:00:30;;;;;;;9.18;5.78;;;;;;;;;;4365291;32;20103;-73
2021/08/22 08:02:57;;;;;;;10.07;6.18;;;;;;;;;;4392070;32;20083;-72
2021/08/22 08:05:23;;;;;;;10.20;5.75;;;;;;;;;;4391536;32;20093;-73
2021/08/22 08:07:50;;;;;;;17.40;6.40;;;;;;;;;;4377541;32;20081;-73
2021/08/22 08:10:17;;;;;;;13.52;5.57;;;;;;;;;;4365582;32;20080;-73
2021/08/22 08:12:44;;;;;;;9.60;5.72;;;;;;;;;;4365277;32;20092;-73
2021/08/22 08:15:11;;;;;;;11.02;5.30;;;;;;;;;;4377798;32;20065;-73
2021/08/22 08:17:38;;;;;;;10.82;5.43;;;;;;;;;;4353372;32;20173;-73
2021/08/22 08:20:05;;;;;;;14.85;5.85;;;;;;;;;;4377383;32;20089;-73
2021/08/22 08:22:32;;;;;;;12.02;5.95;;;;;;;;;;4352887;32;20535;-73
2021/08/22 08:24:58;;;;;;;14.00;6.05;;;;;;;;;;4365398;32;20073;-73
2021/08/22 08:27:25;;;;;;;11.00;5.47;;;;;;;;;;4365784;32;20093;-73
2021/08/22 08:29:51;;;;;;;11.30;6.05;;;;;;;;;;4391493;32;20077;-73
2021/08/22 08:32:18;;;;;;;11.52;5.57;;;;;;;;;;4365298;32;20066;-72
2021/08/22 08:34:45;;;;;;;8.90;5.82;;;;;;;;;;4365135;32;20086;-72
2021/08/22 08:37:12;;;;;;;8.20;4.82;;;;;;;;;;4377166;32;20530;-73
2021/08/22 08:39:39;;;;;;;9.35;5.10;;;;;;;;;;4391433;32;20213;-73
2021/08/22 08:42:24;;;;;;;8.32;5.32;;;;;;;;;;4365264;32;20149;-72
2021/08/22 08:44:54;;;;;;;10.48;5.40;;;;;;;;;;4364460;32;20517;-72
2021/08/22 08:47:22;;;;;;;9.68;5.15;;;;;;;;;;4340458;32;20075;-72
2021/08/22 08:49:52;;;;;;;10.43;5.20;;;;;;;;;;4377841;32;20143;-73
2021/08/22 08:52:32;;;;;;;11.73;5.72;;;;;;;;;;4391726;32;20071;-72
2021/08/22 08:55:17;;;;;;;16.75;5.30;;;;;;;;;;4365119;32;20155;-73
2021/08/22 08:57:43;;;;;;;9.27;5.40;;;;;;;;;;4391276;32;20069;-73
2021/08/22 09:00:20;;;;;;;10.80;6.00;;;;;;;;;;4377556;32;20153;-73
2021/08/22 09:02:47;;;;;;;9.65;5.15;;;;;;;;;;4352233;32;20166;-73
2021/08/22 09:05:52;;;;;;;10.70;5.47;;;;;;;;;;4366247;32;20100;-73
2021/08/22 09:08:40;;;;;;;10.63;5.80;;;;;;;;;;4394415;32;20135;-73
2021/08/22 09:11:48;;;;;;;9.45;5.18;;;;;;;;;;4394248;32;20224;-73
2021/08/22 09:15:05;;;;;;;8.15;5.45;;;;;;;;;;4380080;32;20154;-73
2021/08/22 09:18:03;;;;;;;9.13;5.62;;;;;;;;;;4380609;32;20186;-73
2021/08/22 09:20:44;;;;;;;8.63;4.90;;;;;;;;;;4380002;32;20077;-73
2021/08/22 09:23:30;;;;;;;9.43;5.18;;;;;;;;;;4379887;32;20170;-73
2021/08/22 09:26:38;;;;;;;8.73;5.80;;;;;;;;;;4393987;32;20190;-73
2021/08/22 09:29:42;;;;;;;9.90;5.32;;;;;;;;;;4380269;32;20145;-74
2021/08/22 09:32:46;;;;;;;10.57;5.37;;;;;;;;;;4393816;32;20074;-73
2021/08/22 09:35:15;;;;;;;13.98;5.25;;;;;;;;;;4379461;32;20137;-71
2021/08/22 09:38:19;;;;;;;8.32;4.50;;;;;;;;;;4380330;32;20084;-73
2021/08/22 09:41:24;;;;;;;9.60;5.75;;;;;;;;;;4394262;32;20070;-72
2021/08/22 09:44:32;;;;;;;11.30;4.93;;;;;;;;;;4393145;32;20093;-74
2021/08/22 09:47:24;;;;;;;9.88;5.47;;;;;;;;;;4393850;32;20145;-73
2021/08/22 09:50:26;;;;;;;9.70;5.40;;;;;;;;;;4393602;32;20082;-74
2021/08/22 09:53:30;;;;;;;8.15;5.12;;;;;;;;;;4380057;32;20069;-72
2021/08/22 09:56:21;;;;;;;10.07;5.20;;;;;;;;;;4379562;32;20580;-73
2021/08/22 09:59:09;;;;;;;8.88;5.00;;;;;;;;;;4393835;32;20146;-73
2021/08/22 10:01:39;;;;;;;8.13;5.00;;;;;;;;;;4393461;32;20088;-74
2021/08/22 10:04:05;;;;;;;13.65;5.60;;;;;;;;;;4393495;32;20073;-73
2021/08/22 10:06:41;;;;;;;7.32;4.20;;;;;;;;;;4393487;32;20160;-73
2021/08/22 10:09:27;;;;;;;8.63;4.95;;;;;;;;;;4367199;32;20142;-74
2021/08/22 10:12:01;;;;;;;9.50;4.78;;;;;;;;;;4356089;32;20090;-73
2021/08/22 10:14:31;;;;;;;7.53;4.40;;;;;;;;;;4354931;32;20172;-73
2021/08/22 10:16:58;;;;;;;11.30;5.07;;;;;;;;;;4354219;32;20078;-73
2021/08/22 10:19:30;;;;;;;9.98;5.22;;;;;;;;;;4354434;32;20125;-74
2021/08/22 10:22:09;;;;;;;7.97;4.70;;;;;;;;;;4342296;32;20464;-73
2021/08/22 10:24:38;;;;;;;8.65;4.85;;;;;;;;;;4379749;32;20137;-72
2021/08/22 10:27:08;;;;;;;8.23;4.70;;;;;;;;;;4379196;32;20182;-74
2021/08/22 10:29:59;;;;;;;6.93;4.40;;;;;;;;;;4341940;32;20151;-73
2021/08/22 10:32:26;;;;;;;6.25;4.40;;;;;;;;;;4359162;32;20552;-73
2021/08/22 10:35:11;;;;;;;10.45;5.12;;;;;;;;;;4366537;32;20092;-73
2021/08/22 10:37:41;;;;;;;9.30;4.68;;;;;;;;;;4379310;32;20226;-72
2021/08/22 10:40:26;;;;;;;10.00;4.60;;;;;;;;;;4380198;32;20070;-73
2021/08/22 10:43:04;;;;;;;5.53;4.12;;;;;;;;;;4392887;32;20096;-73
2021/08/22 10:45:43;;;;;;;8.00;4.65;;;;;;;;;;4393202;32;20080;-73
2021/08/22 10:48:30;;;;;;;6.85;5.00;;;;;;;;;;4366149;32;20078;-72
2021/08/22 10:51:02;;;;;;;10.90;4.90;;;;;;;;;;4366375;32;20062;-73
2021/08/22 10:53:38;;;;;;;8.98;4.93;;;;;;;;;;4379316;32;20492;-73
2021/08/22 10:56:23;;;;;;;9.30;4.55;;;;;;;;;;4393325;32;20530;-73
2021/08/22 10:58:59;;;;;;;8.40;4.57;;;;;;;;;;4366431;32;20768;-72
2021/08/22 11:01:26;;;;;;;10.60;5.12;;;;;;;;;;4392819;32;20076;-72
2021/08/22 11:04:12;;;;;;;6.65;4.40;;;;;;;;;;4366410;32;20070;-72
2021/08/22 11:07:02;;;;;;;6.65;4.53;;;;;;;;;;4378770;32;20066;-74
2021/08/22 11:09:38;;;;;;;7.62;4.62;;;;;;;;;;4366367;32;20096;-73
2021/08/22 11:12:21;;;;;;;6.45;4.30;;;;;;;;;;4366572;32;20084;-72
2021/08/22 11:14:47;;;;;;;4.87;3.53;;;;;;;;;;4367944;32;20070;-73
2021/08/22 11:17:14;;;;;;;6.25;3.90;;;;;;;;;;4392228;32;20111;-73
2021/08/22 11:19:40;;;;;;;9.70;4.40;;;;;;;;;;4366351;32;20117;-73
2021/08/22 11:22:26;;;;;;;6.32;4.25;;;;;;;;;;4354047;32;20090;-73
2021/08/22 11:24:54;;;;;;;6.72;4.15;;;;;;;;;;4378396;32;20105;-73
2021/08/22 11:27:25;;;;;;;7.78;4.12;;;;;;;;;;4377789;32;20078;-73
2021/08/22 11:30:05;;;;;;;8.80;3.83;;;;;;;;;;4365680;32;20551;-73
2021/08/22 11:32:31;;;;;;;5.82;3.55;;;;;;;;;;4366094;32;20073;-73
2021/08/22 11:35:15;;;;;;;6.80;4.22;;;;;;;;;;4365859;32;20075;-73
2021/08/22 11:37:42;;;;;;;5.60;3.70;;;;;;;;;;4366134;32;20090;-72
2021/08/22 11:40:10;;;;;;;8.25;3.30;;;;;;;;;;4378140;32;20070;-73
2021/08/22 11:42:37;;;;;;;6.10;3.42;;;;;;;;;;4365682;32;20105;-73
2021/08/22 11:45:11;;;;;;;7.72;3.05;;;;;;;;;;4353635;32;20104;-73
2021/08/22 11:47:38;;;;;;;5.15;3.80;;;;;;;;;;4352943;32;20541;-72
2021/08/22 11:50:10;;;;;;;6.25;3.70;;;;;;;;;;4366107;32;20074;-72
2021/08/22 11:52:38;;;;;;;5.82;3.10;;;;;;;;;;4391843;32;20096;-74
2021/08/22 11:55:06;;;;;;;6.47;3.17;;;;;;;;;;4353373;32;20145;-73
2021/08/22 11:57:33;;;;;;;7.60;3.60;;;;;;;;;;4340524;32;20119;-73
2021/08/22 12:00:01;;;;;;;4.95;3.25;;;;;;;;;;4366056;32;20069;-73
2021/08/22 12:02:27;;;;;;;5.43;2.92;;;;;;;;;;4366016;32;20073;-73
2021/08/22 12:05:13;;;;;;;5.70;3.17;;;;;;;;;;4352738;32;20441;-73
2021/08/22 12:07:44;;;;;;;5.55;3.30;;;;;;;;;;4378250;32;20150;-73
2021/08/22 12:10:24;;;;;;;5.82;3.00;;;;;;;;;;4365342;32;20093;-73
2021/08/22 12:12:51;;;;;;;4.22;2.90;;;;;;;;;;4378219;32;20512;-72
2021/08/22 12:15:18;;;;;;;5.28;2.90;;;;;;;;;;4365816;32;20097;-73
2021/08/22 12:17:45;;;;;;;4.45;3.33;;;;;;;;;;4340776;32;20467;-73
2021/08/22 12:20:18;;;;;;;4.47;2.80;;;;;;;;;;4365656;32;20093;-73
2021/08/22 12:23:03;;;;;;;4.65;2.58;;;;;;;;;;4365819;32;20073;-73
2021/08/22 12:25:30;;;;;;;7.60;2.83;;;;;;;;;;4377828;32;20077;-73
2021/08/22 12:28:20;;;;;;;4.95;2.80;;;;;;;;;;4352846;32;20261;-72
2021/08/22 12:30:49;;;;;;;4.47;2.87;;;;;;;;;;4364925;32;20453;-72
2021/08/22 12:33:54;;;;;;;5.32;2.97;;;;;;;;;;4378003;32;20066;-74
2021/08/22 12:36:30;;;;;;;5.00;2.80;;;;;;;;;;4291001;33;20659;-74
2021/08/22 12:38:58;;;;;;;4.50;3.12;;;;;;;;;;4345549;32;20108;-73
2021/08/22 12:41:28;;;;;;;4.57;2.72;;;;;;;;;;4364919;32;20144;-74
2021/08/22 12:43:56;;;;;;;5.45;2.90;;;;;;;;;;4352656;32;20078;-72
2021/08/22 12:46:23;;;;;;;3.78;2.70;;;;;;;;;;4365068;32;20079;-73
2021/08/22 12:48:50;;;;;;;4.35;3.00;;;;;;;;;;4340683;32;20104;-72
2021/08/22 12:51:20;;;;;;;4.03;2.62;;;;;;;;;;4352361;32;20518;-73
2021/08/22 12:53:48;;;;;;;6.90;2.75;;;;;;;;;;4378390;32;20584;-73
2021/08/22 12:56:14;;;;;;;5.18;2.47;;;;;;;;;;4352548;32;20074;-73
2021/08/22 12:58:41;;;;;;;4.53;3.20;;;;;;;;;;4377186;32;20077;-74
2021/08/22 13:01:07;;;;;;;4.55;2.70;;;;;;;;;;4365234;32;20171;-74
2021/08/22 13:03:34;;;;;;;6.60;3.10;;;;;;;;;;4352602;32;20089;-73
2021/08/22 13:06:01;;;;;;;3.67;2.65;;;;;;;;;;4352561;32;20078;-74
2021/08/22 13:08:28;;;;;;;5.35;2.80;;;;;;;;;;4377306;32;20492;-72
2021/08/22 13:10:55;;;;;;;3.72;2.75;;;;;;;;;;4365058;32;20074;-72
2021/08/22 13:13:21;;;;;;;5.45;3.00;;;;;;;;;;4364917;32;20125;-74
2021/08/22 13:15:48;;;;;;;4.30;2.90;;;;;;;;;;4352882;32;20078;-74
2021/08/22 13:18:14;;;;;;;5.15;2.80;;;;;;;;;;4363976;32;20461;-73
2021/08/22 13:20:41;;;;;;;4.72;2.78;;;;;;;;;;4377731;32;20073;-73
2021/08/22 13:23:07;;;;;;;3.62;2.62;;;;;;;;;;4352704;32;20077;-73
2021/08/22 13:25:34;;;;;;;3.50;2.60;;;;;;;;;;4364938;32;20085;-73
2021/08/22 13:28:00;;;;;;;5.00;2.87;;;;;;;;;;4376989;32;20505;-72
2021/08/22 13:30:27;;;;;;;4.00;2.90;;;;;;;;;;4352816;32;20070;-74
2021/08/22 13:32:53;;;;;;;4.75;3.10;;;;;;;;;;4376866;32;20510;-72
2021/08/22 13:35:20;;;;;;;4.15;2.60;;;;;;;;;;4364499;32;20508;-74
2021/08/22 13:37:47;;;;;;;5.07;3.15;;;;;;;;;;4352429;32;20165;-73
2021/08/22 13:40:14;;;;;;;4.65;3.00;;;;;;;;;;4364781;32;20447;-72
2021/08/22 13:42:40;;;;;;;3.60;2.50;;;;;;;;;;4352181;32;20097;-73
2021/08/22 13:45:07;;;;;;;4.15;3.00;;;;;;;;;;4359345;32;20089;-72
2021/08/22 13:47:34;;;;;;;4.65;2.90;;;;;;;;;;4371609;32;20125;-72
2021/08/22 13:50:01;;;;;;;6.15;3.00;;;;;;;;;;4359958;32;20094;-73
2021/08/22 13:52:30;;;;;;;4.45;2.87;;;;;;;;;;4361946;32;20070;-72
2021/08/22 13:54:57;;;;;;;6.68;3.08;;;;;;;;;;4350374;32;20101;-73
2021/08/22 13:59:59;;;;;;;5.47;2.90;;;;;;;;;;3833872;37;20066;-74
2021/08/22 14:02:25;;;;;;;4.32;2.92;;;;;;;;;;4404318;32;20077;-74
2021/08/22 14:04:52;;;;;;;5.45;2.90;;;;;;;;;;4365381;32;20560;-73
2021/08/22 14:07:19;;;;;;;4.68;2.90;;;;;;;;;;4390356;32;20092;-73
2021/08/22 14:09:45;;;;;;;5.97;3.30;;;;;;;;;;4390508;32;20452;-72
2021/08/22 14:12:12;;;;;;;6.30;3.25;;;;;;;;;;4377940;32;20088;-75
2021/08/22 14:14:38;;;;;;;6.60;3.17;;;;;;;;;;4378143;32;20096;-73
2021/08/22 14:17:05;;;;;;;6.22;3.15;;;;;;;;;;4377997;32;20073;-72
2021/08/22 14:19:31;;;;;;;5.62;3.58;;;;;;;;;;4390114;32;20134;-72
2021/08/22 14:21:59;;;;;;;6.10;3.45;;;;;;;;;;4378211;32;20080;-72
2021/08/22 14:24:25;;;;;;;4.65;3.12;;;;;;;;;;4365784;32;20088;-72
2021/08/22 14:26:52;;;;;;;4.80;2.92;;;;;;;;;;4365067;32;20069;-73
2021/08/22 14:29:21;;;;;;;4.50;3.20;;;;;;;;;;4377772;32;20526;-73
2021/08/22 14:31:49;;;;;;;5.55;3.22;;;;;;;;;;4378222;32;20076;-73
2021/08/22 14:34:19;;;;;;;7.55;3.65;;;;;;;;;;4377898;32;20110;-74
2021/08/22 14:36:45;;;;;;;4.57;3.20;;;;;;;;;;4378009;32;20161;-73
2021/08/22 14:39:12;;;;;;;3.97;2.95;;;;;;;;;;4390119;32;20133;-73
2021/08/22 14:41:38;;;;;;;5.60;3.50;;;;;;;;;;4377552;32;20088;-74
2021/08/22 14:44:05;;;;;;;4.60;2.90;;;;;;;;;;4377859;32;20169;-71
2021/08/22 14:46:31;;;;;;;5.55;3.30;;;;;;;;;;4403635;32;20542;-73
2021/08/22 14:48:58;;;;;;;4.97;3.50;;;;;;;;;;4404163;32;20093;-73
2021/08/22 14:51:24;;;;;;;5.32;3.20;;;;;;;;;;4377281;32;20089;-73
2021/08/22 14:53:51;;;;;;;4.45;2.85;;;;;;;;;;4389803;32;20069;-73
2021/08/22 14:56:18;;;;;;;7.15;3.40;;;;;;;;;;4364947;32;20074;-72
2021/08/22 14:58:44;;;;;;;7.25;3.20;;;;;;;;;;4403178;32;20510;-73